sensor_id;sensor_type;location;lat;lon;timestamp;temperature;humidity
44477;DHT22;30180;44.788;10.366;2022-07-23T17:10:22;27.60;62.40
44477;DHT22;30180;44.788;10.366;2022-07-23T17:12:51;27.60;63.00
44477;DHT22;30180;44.788;10.366;2022-07-23T17:15:20;27.60;63.10
44477;DHT22;30180;44.788;10.366;2022-07-23T17:17:48;27.60;63.20
44477;DHT22;30180;44.788;10.366;2022-07-23T17:20:16;27.60;63.30
44477;DHT22;30180;44.788;10.366;2022-07-23T17:22:45;27.70;63.50
44477;DHT22;30180;44.788;10.366;2022-07-23T17:25:13;27.70;63.60
44477;DHT22;30180;44.788;10.366;2022-07-23T17:27:44;27.70;63.60
44477;DHT22;30180;44.788;10.366;2022-07-23T17:30:14;27.70;63.80
44477;DHT22;30180;44.788;10.366;2022-07-23T17:32:42;27.80;63.90
44477;DHT22;30180;44.788;10.366;2022-07-23T17:35:10;27.80;63.90
44477;DHT22;30180;44.788;10.366;2022-07-23T17:37:39;27.80;63.90
44477;DHT22;30180;44.788;10.366;2022-07-23T17:40:08;27.80;63.90
44477;DHT22;30180;44.788;10.366;2022-07-23T17:42:37;27.90;64.10
44477;DHT22;30180;44.788;10.366;2022-07-23T17:45:08;27.90;64.00
44477;DHT22;30180;44.788;10.366;2022-07-23T17:47:43;27.90;64.70
44477;DHT22;30180;44.788;10.366;2022-07-23T17:50:12;27.90;64.00
44477;DHT22;30180;44.788;10.366;2022-07-23T17:52:46;27.90;63.90
44477;DHT22;30180;44.788;10.366;2022-07-23T17:55:14;28.00;64.10
44477;DHT22;30180;44.788;10.366;2022-07-23T17:57:49;28.00;64.10
44477;DHT22;30180;44.788;10.366;2022-07-23T18:00:21;28.00;64.10
44477;DHT22;30180;44.788;10.366;2022-07-23T18:02:50;28.00;64.10
44477;DHT22;30180;44.788;10.366;2022-07-23T18:05:18;28.00;64.10
44477;DHT22;30180;44.788;10.366;2022-07-23T18:07:46;28.00;64.00
44477;DHT22;30180;44.788;10.366;2022-07-23T18:10:15;28.00;64.10
44477;DHT22;30180;44.788;10.366;2022-07-23T18:12:43;28.00;64.00
44477;DHT22;30180;44.788;10.366;2022-07-23T18:15:12;28.00;64.00
44477;DHT22;30180;44.788;10.366;2022-07-23T18:17:42;28.00;64.00
44477;DHT22;30180;44.788;10.366;2022-07-23T18:20:11;28.00;64.00
44477;DHT22;30180;44.788;10.366;2022-07-23T18:22:39;28.10;64.00
44477;DHT22;30180;44.788;10.366;2022-07-23T18:25:09;28.00;64.00
44477;DHT22;30180;44.788;10.366;2022-07-23T18:27:38;28.00;63.90
44477;DHT22;30180;44.788;10.366;2022-07-23T18:30:07;28.00;64.00
44477;DHT22;30180;44.788;10.366;2022-07-23T18:32:36;28.00;63.90
44477;DHT22;30180;44.788;10.366;2022-07-23T18:35:07;28.00;63.90
44477;DHT22;30180;44.788;10.366;2022-07-23T18:37:38;28.10;64.00
44477;DHT22;30180;44.788;10.366;2022-07-23T18:40:08;28.10;63.90
44477;DHT22;30180;44.788;10.366;2022-07-23T18:42:36;28.10;63.90
44477;DHT22;30180;44.788;10.366;2022-07-23T18:45:06;28.10;63.90
44477;DHT22;30180;44.788;10.366;2022-07-23T18:47:36;28.00;63.80
44477;DHT22;30180;44.788;10.366;2022-07-23T18:50:08;28.10;63.80
44477;DHT22;30180;44.788;10.366;2022-07-23T18:52:37;28.00;64.00
44477;DHT22;30180;44.788;10.366;2022-07-23T18:55:06;28.10;63.80
44477;DHT22;30180;44.788;10.366;2022-07-23T18:57:35;28.10;63.80
44477;DHT22;30180;44.788;10.366;2022-07-23T19:00:05;28.10;63.80
44477;DHT22;30180;44.788;10.366;2022-07-23T19:02:34;28.10;63.80
44477;DHT22;30180;44.788;10.366;2022-07-23T19:05:03;28.10;63.70
44477;DHT22;30180;44.788;10.366;2022-07-23T19:07:33;28.10;63.70
44477;DHT22;30180;44.788;10.366;2022-07-23T19:10:02;28.10;63.70
44477;DHT22;30180;44.788;10.366;2022-07-23T19:12:30;28.10;63.70
44477;DHT22;30180;44.788;10.366;2022-07-23T19:14:58;28.10;63.70
44477;DHT22;30180;44.788;10.366;2022-07-23T19:17:33;28.10;63.70
44477;DHT22;30180;44.788;10.366;2022-07-23T19:20:02;28.10;63.60
44477;DHT22;30180;44.788;10.366;2022-07-23T19:22:32;28.10;63.60
44477;DHT22;30180;44.788;10.366;2022-07-23T19:25:00;28.10;63.60
44477;DHT22;30180;44.788;10.366;2022-07-23T19:27:29;28.10;63.60
44477;DHT22;30180;44.788;10.366;2022-07-23T19:29:57;28.10;63.60
44477;DHT22;30180;44.788;10.366;2022-07-23T19:32:25;28.10;63.60
44477;DHT22;30180;44.788;10.366;2022-07-23T19:35:00;28.10;63.40
44477;DHT22;30180;44.788;10.366;2022-07-23T19:37:28;28.10;63.30
44477;DHT22;30180;44.788;10.366;2022-07-23T19:39:58;28.00;63.10
44477;DHT22;30180;44.788;10.366;2022-07-23T19:42:26;28.00;63.00
44477;DHT22;30180;44.788;10.366;2022-07-23T19:44:58;28.00;62.70
44477;DHT22;30180;44.788;10.366;2022-07-23T19:47:27;27.90;62.70
44477;DHT22;30180;44.788;10.366;2022-07-23T19:49:55;27.90;62.60
44477;DHT22;30180;44.788;10.366;2022-07-23T19:52:23;27.90;62.50
44477;DHT22;30180;44.788;10.366;2022-07-23T19:54:52;27.90;62.50
44477;DHT22;30180;44.788;10.366;2022-07-23T19:57:21;27.90;62.50
44477;DHT22;30180;44.788;10.366;2022-07-23T19:59:49;27.90;62.40
44477;DHT22;30180;44.788;10.366;2022-07-23T20:02:17;27.90;62.30
44477;DHT22;30180;44.788;10.366;2022-07-23T20:04:46;27.80;62.00
44477;DHT22;30180;44.788;10.366;2022-07-23T20:07:14;27.80;62.00
44477;DHT22;30180;44.788;10.366;2022-07-23T20:09:42;27.90;61.90
44477;DHT22;30180;44.788;10.366;2022-07-23T20:12:11;27.80;61.80
44477;DHT22;30180;44.788;10.366;2022-07-23T20:14:40;27.80;61.80
44477;DHT22;30180;44.788;10.366;2022-07-23T20:17:09;27.80;61.60
44477;DHT22;30180;44.788;10.366;2022-07-23T20:19:37;27.80;61.50
44477;DHT22;30180;44.788;10.366;2022-07-23T20:22:05;27.80;61.40
44477;DHT22;30180;44.788;10.366;2022-07-23T20:24:34;27.80;61.20
44477;DHT22;30180;44.788;10.366;2022-07-23T20:27:02;27.80;61.20
44477;DHT22;30180;44.788;10.366;2022-07-23T20:29:31;27.80;61.10
44477;DHT22;30180;44.788;10.366;2022-07-23T20:32:01;27.80;61.00
44477;DHT22;30180;44.788;10.366;2022-07-23T20:34:29;27.80;60.90
44477;DHT22;30180;44.788;10.366;2022-07-23T20:36:58;27.80;60.80
44477;DHT22;30180;44.788;10.366;2022-07-23T20:39:26;27.80;60.70
44477;DHT22;30180;44.788;10.366;2022-07-23T20:41:54;27.90;60.60
44477;DHT22;30180;44.788;10.366;2022-07-23T20:44:23;27.80;60.40
44477;DHT22;30180;44.788;10.366;2022-07-23T20:46:51;27.90;60.40
44477;DHT22;30180;44.788;10.366;2022-07-23T20:49:27;27.90;60.30
44477;DHT22;30180;44.788;10.366;2022-07-23T20:51:57;27.90;60.20
44477;DHT22;30180;44.788;10.366;2022-07-23T20:54:25;27.90;60.00
44477;DHT22;30180;44.788;10.366;2022-07-23T20:56:53;27.80;59.80
44477;DHT22;30180;44.788;10.366;2022-07-23T20:59:22;27.90;59.90
44477;DHT22;30180;44.788;10.366;2022-07-23T21:01:56;27.90;59.70
44477;DHT22;30180;44.788;10.366;2022-07-23T21:04:24;27.90;59.60
44477;DHT22;30180;44.788;10.366;2022-07-23T21:06:54;27.90;59.60
44477;DHT22;30180;44.788;10.366;2022-07-23T21:09:22;27.90;59.50
44477;DHT22;30180;44.788;10.366;2022-07-23T21:11:51;27.90;59.40
44477;DHT22;30180;44.788;10.366;2022-07-23T21:14:19;27.90;59.30
44477;DHT22;30180;44.788;10.366;2022-07-23T21:16:47;27.90;59.20
44477;DHT22;30180;44.788;10.366;2022-07-23T21:19:15;27.90;59.10
44477;DHT22;30180;44.788;10.366;2022-07-23T21:21:44;27.90;59.00
44477;DHT22;30180;44.788;10.366;2022-07-23T21:24:13;27.90;58.90
44477;DHT22;30180;44.788;10.366;2022-07-23T21:26:41;27.90;58.80
44477;DHT22;30180;44.788;10.366;2022-07-23T21:29:10;27.90;58.70
44477;DHT22;30180;44.788;10.366;2022-07-23T21:31:38;27.90;58.60
44477;DHT22;30180;44.788;10.366;2022-07-23T21:34:06;27.90;58.50
44477;DHT22;30180;44.788;10.366;2022-07-23T21:36:34;27.90;58.40
44477;DHT22;30180;44.788;10.366;2022-07-23T21:39:03;27.90;59.00
44477;DHT22;30180;44.788;10.366;2022-07-23T21:41:34;28.00;58.40
44477;DHT22;30180;44.788;10.366;2022-07-23T21:44:03;27.90;58.20
44477;DHT22;30180;44.788;10.366;2022-07-23T21:46:31;27.90;58.10
44477;DHT22;30180;44.788;10.366;2022-07-23T21:49:01;27.90;58.10
44477;DHT22;30180;44.788;10.366;2022-07-23T21:51:30;27.90;58.00
44477;DHT22;30180;44.788;10.366;2022-07-23T21:53:58;28.00;58.60
44477;DHT22;30180;44.788;10.366;2022-07-23T21:56:27;27.90;57.90
44477;DHT22;30180;44.788;10.366;2022-07-23T21:58:56;28.00;57.80
44477;DHT22;30180;44.788;10.366;2022-07-23T22:01:25;28.00;57.80
44477;DHT22;30180;44.788;10.366;2022-07-23T22:03:53;28.00;57.70
44477;DHT22;30180;44.788;10.366;2022-07-23T22:06:22;28.00;57.70
44477;DHT22;30180;44.788;10.366;2022-07-23T22:08:50;28.00;57.60
44477;DHT22;30180;44.788;10.366;2022-07-23T22:11:18;28.00;57.60
44477;DHT22;30180;44.788;10.366;2022-07-23T22:13:46;28.00;57.50
44477;DHT22;30180;44.788;10.366;2022-07-23T22:16:16;28.00;57.40
44477;DHT22;30180;44.788;10.366;2022-07-23T22:18:45;28.00;57.40
44477;DHT22;30180;44.788;10.366;2022-07-23T22:21:13;28.00;57.30
44477;DHT22;30180;44.788;10.366;2022-07-23T22:24:01;28.00;57.20
44477;DHT22;30180;44.788;10.366;2022-07-23T22:26:30;28.00;57.20
44477;DHT22;30180;44.788;10.366;2022-07-23T22:28:58;28.00;57.10
44477;DHT22;30180;44.788;10.366;2022-07-23T22:31:28;28.00;57.10
44477;DHT22;30180;44.788;10.366;2022-07-23T22:33:56;28.00;57.00
44477;DHT22;30180;44.788;10.366;2022-07-23T22:36:24;28.00;57.00
44477;DHT22;30180;44.788;10.366;2022-07-23T22:38:53;28.00;57.00
44477;DHT22;30180;44.788;10.366;2022-07-23T22:41:21;28.00;56.90
44477;DHT22;30180;44.788;10.366;2022-07-23T22:43:49;28.10;57.00
44477;DHT22;30180;44.788;10.366;2022-07-23T22:46:18;28.00;56.90
44477;DHT22;30180;44.788;10.366;2022-07-23T22:48:47;28.00;56.90
44477;DHT22;30180;44.788;10.366;2022-07-23T22:51:16;28.10;56.80
44477;DHT22;30180;44.788;10.366;2022-07-23T22:53:47;28.10;56.80
44477;DHT22;30180;44.788;10.366;2022-07-23T22:56:15;28.10;56.70
44477;DHT22;30180;44.788;10.366;2022-07-23T22:58:43;28.00;56.70
44477;DHT22;30180;44.788;10.366;2022-07-23T23:01:16;28.10;56.70
44477;DHT22;30180;44.788;10.366;2022-07-23T23:03:44;28.10;56.70
44477;DHT22;30180;44.788;10.366;2022-07-23T23:06:14;28.10;56.60
44477;DHT22;30180;44.788;10.366;2022-07-23T23:08:42;28.10;56.60
44477;DHT22;30180;44.788;10.366;2022-07-23T23:11:10;28.10;56.60
44477;DHT22;30180;44.788;10.366;2022-07-23T23:13:38;28.10;56.60
44477;DHT22;30180;44.788;10.366;2022-07-23T23:16:07;28.10;56.50
44477;DHT22;30180;44.788;10.366;2022-07-23T23:18:35;28.10;56.50
44477;DHT22;30180;44.788;10.366;2022-07-23T23:21:03;28.10;56.50
44477;DHT22;30180;44.788;10.366;2022-07-23T23:23:33;28.10;56.40
44477;DHT22;30180;44.788;10.366;2022-07-23T23:26:01;28.10;56.70
44477;DHT22;30180;44.788;10.366;2022-07-23T23:28:30;28.10;56.40
44477;DHT22;30180;44.788;10.366;2022-07-23T23:30:58;28.10;56.40
44477;DHT22;30180;44.788;10.366;2022-07-23T23:33:26;28.10;56.40
44477;DHT22;30180;44.788;10.366;2022-07-23T23:35:54;28.10;56.40
44477;DHT22;30180;44.788;10.366;2022-07-23T23:38:23;28.10;56.30
44477;DHT22;30180;44.788;10.366;2022-07-23T23:40:52;28.10;56.30
44477;DHT22;30180;44.788;10.366;2022-07-23T23:43:21;28.10;56.30
44477;DHT22;30180;44.788;10.366;2022-07-23T23:45:49;28.10;56.30
44477;DHT22;30180;44.788;10.366;2022-07-23T23:48:17;28.10;56.20
44477;DHT22;30180;44.788;10.366;2022-07-23T23:50:45;28.10;56.20
44477;DHT22;30180;44.788;10.366;2022-07-23T23:53:14;28.10;56.20
44477;DHT22;30180;44.788;10.366;2022-07-23T23:55:42;28.10;56.20
44477;DHT22;30180;44.788;10.366;2022-07-23T23:58:11;28.00;56.10
